03:52
Airports
Links
Donate
Help keep this website running!
PayPal
Bitcoin
METAR
KLAX 250253Z 27015KT 10SM SCT150 BKN200 16/08 A3016 RMK AO2 SLP213 T01560078 56004
Current Weather Conditions at KLAX
VFR 02:53:00 25-03-17
Automated station
Altimeter:30.16 hg
Temp:15.6°c 59°f
Dew point:7.8°c 45°f
Wind:15 knots, 17.3 mph, 8 m/s, from 270°
Visibility:10.0 statute miles
20000(BKN) Broken
15000(SCT) Scattered
Past METAR reports
VFR 01:53:00 25-03-17
Automated station
Altimeter:30.16 hg
Temp:15.0°c 59°f
Dew point:11.1°c 52°f
Wind:15 knots, 17.3 mph, 8 m/s, from 260°
Visibility:10.0 statute miles
20000(BKN) Broken
15000(SCT) Scattered
KLAX 250153Z 26015KT 10SM SCT150 BKN200 15/11 A3016 RMK AO2 SLP213 T01500111
VFR 00:53:00 25-03-17
Automated station
Altimeter:30.16 hg
Temp:16.1°c 61°f
Dew point:11.7°c 52°f
Wind:13 knots, 15 mph, 7 m/s, from 260°
Visibility:10.0 statute miles
20000(BKN) Broken
1200(FEW) A few
KLAX 250053Z 26013KT 10SM FEW012 BKN200 16/12 A3016 RMK AO2 SLP213 T01610117
VFR 23:53:00 24-03-17
Automated station
Altimeter:30.17 hg
Temp:16.7°c 61°f
Dew point:12.2°c 54°f
Wind:17 knots, 19.6 mph, 9 m/s, from 260°
Visibility:10.0 statute miles
20000(SCT) Scattered
1200(FEW) A few
KLAX 242353Z 26017KT 10SM FEW012 SCT200 17/12 A3017 RMK AO2 SLP216 T01670122 10194 20167 58014
VFR 22:53:00 24-03-17
Automated station
Altimeter:30.19 hg
Temp:17.2°c 63°f
Dew point:12.2°c 54°f
Wind:14 knots, 16.1 mph, 7 m/s, from 260°
Visibility:10.0 statute miles
20000(SCT) Scattered
1800(FEW) A few
KLAX 242253Z 26014KT 10SM FEW018 SCT200 17/12 A3019 RMK AO2 SLP221 T01720122
VFR 21:53:00 24-03-17
Automated station
Altimeter:30.20 hg
Temp:17.8°c 63°f
Dew point:11.7°c 52°f
Wind:15 knots, 17.3 mph, 8 m/s, from 250°
Visibility:10.0 statute miles
25000(SCT) Scattered
15000(FEW) A few
KLAX 242153Z 25015KT 10SM FEW150 SCT250 18/12 A3020 RMK AO2 SLP227 T01780117
TAF
KLAX 250323Z 2503/2606 27015KT P6SM SCT150 BKN200 FM250900 29009KT P6SM VCSH BKN070 FM251300 32006KT P6SM VCSH BKN025 OVC050 FM251700 25012KT P6SM BKN025 FM252100 27015G22KT P6SM SCT025 BKN040 FM260400 28012KT P6SM SCT030 BKN050
Forecast at KLAX
03:00 25-03-17 to 09:00 25-03-17
Wind:15 Knots from 270°
Visibility:6.21 statute miles
15000SCT Scattered
20000BKN Broken
FM 09:00 25-03-17 to 13:00 25-03-17
VCSH
Wind:9 Knots from 290°
Visibility:6.21 statute miles
7000BKN Broken
FM 13:00 25-03-17 to 17:00 25-03-17
VCSH
Wind:6 Knots from 320°
Visibility:6.21 statute miles
2500BKN Broken
5000OVC Overcast
FM 17:00 25-03-17 to 21:00 25-03-17
Wind:12 Knots from 250°
Visibility:6.21 statute miles
2500BKN Broken
FM 21:00 25-03-17 to 04:00 26-03-17
Wind:15 Knots from 270°
Visibility:6.21 statute miles
2500SCT Scattered
4000BKN Broken
FM 04:00 26-03-17 to 06:00 26-03-17
Wind:12 Knots from 280°
Visibility:6.21 statute miles
3000SCT Scattered
5000BKN Broken